createdAt,value
2023-05-13T00:01:10.842Z,99609.09
2023-05-13T00:03:38.223Z,99607.91
2023-05-13T00:06:05.521Z,99605.04
2023-05-13T00:08:32.339Z,99605.11
2023-05-13T00:10:59.214Z,99603.55
2023-05-13T00:13:26.842Z,99601.42
2023-05-13T00:15:53.884Z,99600.11
2023-05-13T00:18:20.845Z,99605.16
2023-05-13T00:20:47.860Z,99606.72
2023-05-13T00:23:14.737Z,99606.73
2023-05-13T00:25:42.268Z,99607.27
2023-05-13T00:28:09.145Z,99604.80
2023-05-13T00:30:36.128Z,99602.81
2023-05-13T00:33:03.205Z,99605.92
2023-05-13T00:35:30.130Z,99601.73
2023-05-13T00:37:57.005Z,99602.70
2023-05-13T00:40:24.490Z,99602.59
2023-05-13T00:42:51.600Z,99605.79
2023-05-13T00:45:18.497Z,99605.59
2023-05-13T00:47:45.521Z,99602.79
2023-05-13T00:50:12.993Z,99603.68
2023-05-13T00:52:40.384Z,99604.60
2023-05-13T00:55:09.001Z,99609.67
2023-05-13T00:57:36.808Z,99609.42
2023-05-13T01:00:05.928Z,99607.05
2023-05-13T01:02:37.567Z,99611.69
2023-05-13T01:05:20.064Z,99606.83
2023-05-13T01:07:56.204Z,99606.95
2023-05-13T01:10:45.107Z,99607.98
2023-05-13T01:13:14.391Z,99612.21
2023-05-13T01:15:57.620Z,99608.70
2023-05-13T01:18:27.864Z,99609.38
2023-05-13T01:20:54.708Z,99609.26
2023-05-13T01:23:21.946Z,99604.81
2023-05-13T01:25:50.622Z,99608.19
2023-05-13T01:28:17.425Z,99607.02
2023-05-13T01:30:47.656Z,99605.10
2023-05-13T01:33:15.544Z,99607.66
2023-05-13T01:35:43.995Z,99607.84
2023-05-13T01:38:12.306Z,99608.37
2023-05-13T01:40:39.467Z,99606.60
2023-05-13T01:43:06.831Z,99607.13
2023-05-13T01:45:35.442Z,99604.15
2023-05-13T01:48:02.494Z,99605.48
2023-05-13T01:50:37.762Z,99604.92
2023-05-13T01:53:05.097Z,99609.73
2023-05-13T01:55:32.079Z,99609.52
2023-05-13T01:58:00.460Z,99609.36
2023-05-13T02:00:27.529Z,99611.05
2023-05-13T02:02:54.374Z,99609.88
2023-05-13T02:05:21.646Z,99610.83
2023-05-13T02:07:48.762Z,99612.52
2023-05-13T02:10:15.611Z,99612.16
2023-05-13T02:12:42.492Z,99612.52
2023-05-13T02:15:10.064Z,99616.45
2023-05-13T02:17:36.919Z,99618.02
2023-05-13T02:20:04.294Z,99617.84
2023-05-13T02:22:31.264Z,99617.09
2023-05-13T02:24:58.920Z,99619.77
2023-05-13T02:27:26.182Z,99620.77
2023-05-13T02:29:53.402Z,99624.91
2023-05-13T02:32:20.211Z,99624.77
2023-05-13T02:34:47.296Z,99630.23
2023-05-13T02:37:17.994Z,99633.89
2023-05-13T02:39:49.214Z,99635.02
2023-05-13T02:42:16.333Z,99634.10
2023-05-13T02:44:43.220Z,99633.40
2023-05-13T02:47:11.829Z,99628.17
2023-05-13T02:49:38.862Z,99630.13
2023-05-13T02:52:06.196Z,99627.86
2023-05-13T02:54:34.666Z,99629.91
2023-05-13T02:57:01.717Z,99633.73
2023-05-13T02:59:28.879Z,99635.23
2023-05-13T03:01:55.876Z,99633.84
2023-05-13T03:04:22.778Z,99638.58
2023-05-13T03:06:50.784Z,99641.44
2023-05-13T03:09:17.821Z,99639.22
2023-05-13T03:11:44.757Z,99639.05
2023-05-13T03:14:11.676Z,99637.46
2023-05-13T03:16:38.614Z,99640.89
2023-05-13T03:19:05.636Z,99641.77
2023-05-13T03:21:32.618Z,99640.45
2023-05-13T03:23:59.813Z,99646.09
2023-05-13T03:26:27.056Z,99644.17
2023-05-13T03:28:54.651Z,99643.70
2023-05-13T03:31:22.051Z,99643.70
2023-05-13T03:33:49.006Z,99649.67
2023-05-13T03:36:15.831Z,99650.14
2023-05-13T03:38:42.922Z,99649.84
2023-05-13T03:41:10.043Z,99655.18
2023-05-13T03:43:37.136Z,99661.09
2023-05-13T03:46:07.081Z,99666.04
2023-05-13T03:48:33.967Z,99666.98
2023-05-13T03:51:01.662Z,99667.30
2023-05-13T03:53:29.555Z,99670.23
2023-05-13T03:55:56.471Z,99670.02
2023-05-13T03:58:23.347Z,99671.30
2023-05-13T04:00:50.358Z,99672.95
2023-05-13T04:03:17.763Z,99678.13
2023-05-13T04:05:48.066Z,99680.13
2023-05-13T04:08:15.337Z,99681.01
2023-05-13T04:10:43.306Z,99682.51
2023-05-13T04:13:10.101Z,99682.92
2023-05-13T04:15:36.946Z,99683.84
2023-05-13T04:18:06.203Z,99686.48
2023-05-13T04:20:34.506Z,99685.96
2023-05-13T04:23:01.959Z,99686.10
2023-05-13T04:25:29.826Z,99687.94
2023-05-13T04:27:56.628Z,99685.02
2023-05-13T04:30:31.637Z,99684.61
2023-05-13T04:32:58.536Z,99687.70
2023-05-13T04:35:25.731Z,99689.44
2023-05-13T04:37:56.567Z,99688.70
2023-05-13T04:40:23.663Z,99690.55
2023-05-13T04:42:55.131Z,99686.76
2023-05-13T04:45:26.963Z,99685.84
2023-05-13T04:47:55.528Z,99680.95
2023-05-13T04:50:23.810Z,99685.30
2023-05-13T04:52:51.298Z,99690.21
2023-05-13T04:55:18.208Z,99686.97
2023-05-13T04:57:45.469Z,99691.76
2023-05-13T05:00:13.374Z,99691.13
2023-05-13T05:02:40.984Z,99694.36
2023-05-13T05:05:08.228Z,99695.52
2023-05-13T05:07:40.349Z,99694.29
2023-05-13T05:10:08.552Z,99690.84
2023-05-13T05:12:38.357Z,99692.05
2023-05-13T05:15:06.247Z,99696.46
2023-05-13T05:17:34.090Z,99702.56
2023-05-13T05:20:02.973Z,99701.30
2023-05-13T05:22:30.218Z,99703.20
2023-05-13T05:24:57.068Z,99704.86
2023-05-13T05:27:25.344Z,99700.54
2023-05-13T05:29:52.230Z,99699.39
2023-05-13T05:32:19.598Z,99701.50
2023-05-13T05:34:46.597Z,99701.11
2023-05-13T05:37:14.029Z,99698.37
2023-05-13T05:39:41.769Z,99701.48
2023-05-13T05:42:08.787Z,99699.41
2023-05-13T05:44:36.411Z,99701.61
2023-05-13T05:47:03.502Z,99694.48
2023-05-13T05:51:34.372Z,99695.54
2023-05-13T05:54:03.110Z,99697.11
2023-05-13T05:56:30.698Z,99699.25
2023-05-13T05:58:57.574Z,99702.98
2023-05-13T06:01:26.143Z,99703.61
2023-05-13T06:03:55.342Z,99705.53
2023-05-13T06:06:23.224Z,99700.36
2023-05-13T06:08:50.413Z,99698.68
2023-05-13T06:11:17.463Z,99703.14
2023-05-13T06:13:44.337Z,99702.48
2023-05-13T06:16:11.232Z,99702.88
2023-05-13T06:18:38.261Z,99698.52
2023-05-13T06:21:05.274Z,99697.34
2023-05-13T06:23:32.124Z,99702.45
2023-05-13T06:26:46.182Z,99702.72
2023-05-13T06:29:14.376Z,99701.52
2023-05-13T06:31:41.307Z,99700.88
2023-05-13T06:34:08.535Z,99699.91
2023-05-13T06:36:35.492Z,99697.61
2023-05-13T06:39:04.151Z,99697.50
2023-05-13T06:41:32.397Z,99696.44
2023-05-13T06:44:06.828Z,99697.42
2023-05-13T06:46:38.500Z,99696.05
2023-05-13T06:49:05.380Z,99695.45
2023-05-13T06:52:02.903Z,99692.04
2023-05-13T06:54:30.417Z,99692.37
2023-05-13T06:56:57.266Z,99689.11
2023-05-13T06:59:24.161Z,99689.06
2023-05-13T07:01:51.014Z,99689.67
2023-05-13T07:04:17.911Z,99690.77
2023-05-13T07:06:45.008Z,99693.03
2023-05-13T07:09:11.926Z,99688.87
2023-05-13T07:11:39.214Z,99687.28
2023-05-13T07:14:06.283Z,99686.56
2023-05-13T07:16:33.182Z,99687.79
2023-05-13T07:19:00.011Z,99691.67
2023-05-13T07:21:26.855Z,99696.02
2023-05-13T07:23:53.677Z,99688.73
2023-05-13T07:26:21.768Z,99693.08
2023-05-13T07:28:48.725Z,99690.60
2023-05-13T07:31:15.581Z,99680.73
2023-05-13T07:33:42.448Z,99678.10
2023-05-13T07:36:09.359Z,99683.94
2023-05-13T07:38:36.190Z,99682.33
2023-05-13T07:41:02.980Z,99686.41
2023-05-13T07:43:30.122Z,99685.67
2023-05-13T07:45:57.013Z,99687.32
2023-05-13T07:48:25.380Z,99688.27
2023-05-13T07:50:52.685Z,99682.02
2023-05-13T07:53:20.010Z,99684.45
2023-05-13T07:55:46.975Z,99687.45
2023-05-13T07:58:13.820Z,99685.19
2023-05-13T08:00:40.865Z,99680.88
2023-05-13T08:03:07.836Z,99685.98
2023-05-13T08:05:34.896Z,99687.72
2023-05-13T08:08:02.963Z,99689.45
2023-05-13T08:10:30.554Z,99689.39
2023-05-13T08:14:50.176Z,99691.73
2023-05-13T08:24:12.505Z,99691.38
2023-05-13T08:29:20.582Z,99688.64
2023-05-13T08:31:47.510Z,99679.71
2023-05-13T08:34:14.489Z,99677.20
2023-05-13T08:36:41.552Z,99674.25
2023-05-13T08:39:08.704Z,99675.20
